Time;durP1;ratioP1;P1;durP2;ratioP2;P2;SDS_P1;SDS_P2;PMS_P1;PMS_P2;Temp;Humidity;BMP_temperature;BMP_pressure;BME280_temperature;BME280_humidity;BME280_pressure;Samples;Min_cycle;Max_cycle;Signal;HPM_P1;HPM_P2
2023/01/21 00:02:12;;;;;;;;;;;;;;;4.46;95.11;94559.22;5056166;28;977;-51
2023/01/21 00:04:38;;;;;;;;;;;;;;;4.38;95.22;94563.50;5073576;28;1097;-51
2023/01/21 00:07:05;;;;;;;;;;;;;;;4.40;95.70;94559.78;5073489;28;1205;-51
2023/01/21 00:09:31;;;;;;;;;;;;;;;4.49;95.49;94560.72;5073509;28;1255;-51
2023/01/21 00:11:57;;;;;;;;;;;;;;;4.53;94.79;94562.13;5073747;28;996;-51
2023/01/21 00:14:24;;;;;;;;;;;;;;;4.46;95.51;94569.81;5073587;28;1053;-50
2023/01/21 00:16:50;;;;;;;;;;;;;;;4.41;96.53;94569.38;5073347;28;1937;-51
2023/01/21 00:19:16;;;;;;;;;;;;;;;4.43;96.98;94563.94;5073441;28;1282;-51
2023/01/21 00:21:42;;;;;;;;;;;;;;;4.38;96.97;94572.31;5073360;28;1028;-51
2023/01/21 00:24:09;;;;;;;;;;;;;;;4.35;96.23;94562.00;5073356;28;1038;-51
2023/01/21 00:26:35;;;;;;;;;;;;;;;4.47;96.21;94557.38;5072617;28;1096;-51
2023/01/21 00:29:01;;;;;;;;;;;;;;;4.54;95.63;94562.97;5073044;28;1108;-51
2023/01/21 00:31:27;;;;;;;;;;;;;;;4.46;95.53;94559.22;5073274;28;1040;-51
2023/01/21 00:33:53;;;;;;;;;;;;;;;4.27;96.89;94552.09;5073454;28;996;-51
2023/01/21 00:36:21;;;;;;;;;;;;;;;4.26;96.91;94547.75;5073097;28;1914;-51
2023/01/21 00:38:47;;;;;;;;;;;;;;;4.35;96.93;94548.75;5073263;28;1040;-51
2023/01/21 00:41:13;;;;;;;;;;;;;;;4.32;96.42;94556.97;5073404;28;1051;-51
2023/01/21 00:43:40;;;;;;;;;;;;;;;4.32;97.13;94546.38;5073105;28;1037;-51
2023/01/21 00:46:06;;;;;;;;;;;;;;;4.19;97.47;94538.72;5073255;28;1112;-51
2023/01/21 00:48:33;;;;;;;;;;;;;;;4.02;98.73;94548.16;5073180;28;1005;-51
2023/01/21 00:50:59;;;;;;;;;;;;;;;3.99;98.86;94542.28;5073218;28;1031;-51
2023/01/21 00:53:26;;;;;;;;;;;;;;;4.11;97.44;94546.47;5073026;28;1112;-50
2023/01/21 00:55:52;;;;;;;;;;;;;;;4.04;97.57;94543.56;5052057;28;1159;-50
2023/01/21 00:58:18;;;;;;;;;;;;;;;4.08;98.25;94544.97;5053058;28;1981;-51
2023/01/21 01:00:44;;;;;;;;;;;;;;;4.18;97.57;94547.63;5052041;28;1116;-51
2023/01/21 01:03:10;;;;;;;;;;;;;;;4.25;97.17;94551.41;5053112;28;998;-51
2023/01/21 01:05:36;;;;;;;;;;;;;;;4.27;97.37;94545.97;5052858;28;1113;-51
2023/01/21 01:08:03;;;;;;;;;;;;;;;4.38;97.17;94548.50;5052978;28;961;-51
2023/01/21 01:10:29;;;;;;;;;;;;;;;4.42;96.78;94536.66;5051003;28;1112;-51
2023/01/21 01:12:55;;;;;;;;;;;;;;;4.46;96.80;94532.75;5053072;28;1083;-51
2023/01/21 01:15:21;;;;;;;;;;;;;;;4.43;96.91;94530.34;5052817;28;1049;-51
2023/01/21 01:17:47;;;;;;;;;;;;;;;4.40;96.14;94509.47;5052891;28;1910;-51
2023/01/21 01:20:13;;;;;;;;;;;;;;;4.33;95.85;94515.47;5052944;28;1037;-51
2023/01/21 01:22:39;;;;;;;;;;;;;;;4.38;96.13;94507.94;5052739;28;986;-51
2023/01/21 01:25:05;;;;;;;;;;;;;;;4.33;96.11;94521.59;5052966;28;1016;-51
2023/01/21 01:27:31;;;;;;;;;;;;;;;4.35;95.31;94521.47;5052702;28;1041;-51
2023/01/21 01:29:57;;;;;;;;;;;;;;;4.31;95.39;94518.25;5052843;28;1053;-51
2023/01/21 01:32:23;;;;;;;;;;;;;;;4.29;96.22;94509.63;5052664;28;1022;-51
2023/01/21 01:34:49;;;;;;;;;;;;;;;4.29;96.39;94525.50;5052743;28;1856;-51
2023/01/21 01:37:15;;;;;;;;;;;;;;;4.29;96.38;94526.31;5052591;28;1906;-51
2023/01/21 01:39:41;;;;;;;;;;;;;;;4.37;96.70;94527.44;5054280;28;1127;-51
2023/01/21 01:42:12;;;;;;;;;;;;;;;4.33;96.33;94524.25;5056328;28;1057;-51
2023/01/21 01:44:56;;;;;;;;;;;;;;;4.20;97.08;94505.16;5056295;28;1080;-50
2023/01/21 01:47:23;;;;;;;;;;;;;;;4.28;97.21;94497.34;5056201;28;1891;-51
2023/01/21 01:49:50;;;;;;;;;;;;;;;4.32;96.65;94498.72;5056206;28;1033;-51
2023/01/21 01:52:17;;;;;;;;;;;;;;;4.34;96.33;94488.84;5056153;28;1042;-51
2023/01/21 01:54:46;;;;;;;;;;;;;;;4.20;96.55;94479.50;5056258;28;1030;-51
2023/01/21 01:57:13;;;;;;;;;;;;;;;4.06;97.13;94480.78;5074421;28;1996;-51
2023/01/21 01:59:41;;;;;;;;;;;;;;;4.18;97.30;94492.06;5058157;28;1037;-51
2023/01/21 02:02:10;;;;;;;;;;;;;;;4.27;97.19;94479.81;5075994;28;1023;-50
2023/01/21 02:04:44;;;;;;;;;;;;;;;4.30;96.81;94482.16;5075891;28;1194;-51
2023/01/21 02:07:11;;;;;;;;;;;;;;;4.16;96.54;94487.88;5076041;28;1016;-51
2023/01/21 02:09:37;;;;;;;;;;;;;;;4.08;96.99;94480.63;5057883;28;1113;-51
2023/01/21 02:12:04;;;;;;;;;;;;;;;4.09;97.01;94467.25;5075814;28;1001;-51
2023/01/21 02:14:31;;;;;;;;;;;;;;;4.25;96.86;94473.78;5075655;28;1029;-51
2023/01/21 02:17:16;;;;;;;;;;;;;;;4.30;96.30;94463.63;5075561;28;1909;-51
2023/01/21 02:19:45;;;;;;;;;;;;;;;4.34;95.99;94458.91;5075751;28;1230;-50
2023/01/21 02:22:14;;;;;;;;;;;;;;;4.34;96.25;94465.03;5075720;28;1102;-51
2023/01/21 02:24:40;;;;;;;;;;;;;;;4.31;96.33;94446.78;5075625;28;1055;-51
2023/01/21 02:27:21;;;;;;;;;;;;;;;4.36;96.31;94439.25;5075590;28;1052;-50
2023/01/21 02:30:06;;;;;;;;;;;;;;;4.26;96.25;94436.63;5075438;28;1041;-50
2023/01/21 02:32:50;;;;;;;;;;;;;;;4.18;97.12;94433.84;5075328;28;1045;-51
2023/01/21 02:35:23;;;;;;;;;;;;;;;4.29;97.17;94430.22;5075411;28;1109;-51
2023/01/21 02:38:07;;;;;;;;;;;;;;;4.41;96.39;94437.03;5075225;28;1963;-50
2023/01/21 02:40:49;;;;;;;;;;;;;;;4.43;96.10;94443.00;5075403;28;1200;-51
2023/01/21 02:43:15;;;;;;;;;;;;;;;4.26;96.34;94433.13;5075269;28;1097;-51
2023/01/21 02:45:45;;;;;;;;;;;;;;;4.19;97.26;94418.78;5075175;28;957;-51
2023/01/21 02:48:11;;;;;;;;;;;;;;;4.29;96.88;94430.22;5075131;28;986;-50
2023/01/21 02:50:43;;;;;;;;;;;;;;;4.31;96.94;94438.84;5073992;28;1983;-51
2023/01/21 02:53:25;;;;;;;;;;;;;;;4.25;96.23;94427.03;5075159;28;1009;-51
2023/01/21 02:55:52;;;;;;;;;;;;;;;4.26;95.91;94406.69;5067784;28;1174;-51
2023/01/21 02:58:20;;;;;;;;;;;;;;;4.22;95.92;94389.41;5054890;28;1906;-51
2023/01/21 03:00:58;;;;;;;;;;;;;;;4.13;95.24;94395.56;5054780;28;969;-51
2023/01/21 03:03:34;;;;;;;;;;;;;;;4.16;96.30;94405.88;5054929;28;978;-51
2023/01/21 03:06:00;;;;;;;;;;;;;;;4.22;95.02;94413.22;5054732;28;1053;-51
2023/01/21 03:08:31;;;;;;;;;;;;;;;4.22;94.39;94410.59;5054665;28;1607;-51
2023/01/21 03:11:05;;;;;;;;;;;;;;;4.21;93.52;94395.69;5054598;28;1413;-50
2023/01/21 03:19:16;;;;;;;;;;;;;;;4.01;93.81;94408.09;5054582;28;1020;-51
2023/01/21 03:21:43;;;;;;;;;;;;;;;4.07;93.66;94389.84;5054336;28;1093;-51
2023/01/21 03:24:10;;;;;;;;;;;;;;;4.13;93.68;94388.44;5053467;28;985;-51
2023/01/21 03:26:39;;;;;;;;;;;;;;;4.22;92.78;94378.84;5054256;28;1093;-51
2023/01/21 03:29:08;;;;;;;;;;;;;;;4.21;92.78;94375.38;5054443;28;993;-51
2023/01/21 03:31:36;;;;;;;;;;;;;;;4.20;92.29;94373.69;5054170;28;1022;-51
2023/01/21 03:34:04;;;;;;;;;;;;;;;4.21;92.41;94380.66;5053098;28;990;-51
2023/01/21 03:36:42;;;;;;;;;;;;;;;4.13;92.02;94369.91;5052830;28;1901;-51
2023/01/21 03:39:23;;;;;;;;;;;;;;;3.94;93.00;94362.84;5054189;28;1042;-51
2023/01/21 03:41:49;;;;;;;;;;;;;;;3.75;93.75;94368.97;5054249;28;1047;-51
2023/01/21 03:44:15;;;;;;;;;;;;;;;3.81;93.23;94363.09;5052845;28;1132;-51
2023/01/21 03:46:44;;;;;;;;;;;;;;;3.91;94.19;94357.84;5053911;28;941;-51
2023/01/21 03:49:15;;;;;;;;;;;;;;;3.90;93.55;94372.03;5053921;28;1050;-51
2023/01/21 03:51:45;;;;;;;;;;;;;;;3.98;93.74;94379.25;5054018;28;1032;-51
2023/01/21 03:54:12;;;;;;;;;;;;;;;4.06;93.82;94367.03;5052727;28;1053;-51
2023/01/21 03:56:38;;;;;;;;;;;;;;;4.09;94.07;94365.91;5067225;28;1918;-51
2023/01/21 03:59:04;;;;;;;;;;;;;;;4.01;94.36;94363.94;5073763;28;1061;-51
2023/01/21 04:01:30;;;;;;;;;;;;;;;3.87;94.31;94372.31;5073361;28;1855;-51
2023/01/21 04:03:56;;;;;;;;;;;;;;;3.87;95.54;94367.88;5073819;28;1060;-51
2023/01/21 04:06:22;;;;;;;;;;;;;;;3.91;95.34;94366.59;5073456;28;1073;-51
2023/01/21 04:08:48;;;;;;;;;;;;;;;3.95;94.77;94369.81;5073416;28;1199;-51
2023/01/21 04:11:14;;;;;;;;;;;;;;;3.91;94.17;94366.59;5073671;28;1032;-51
2023/01/21 04:13:40;;;;;;;;;;;;;;;3.78;94.27;94368.69;5055893;28;1002;-51
2023/01/21 04:16:07;;;;;;;;;;;;;;;3.74;95.10;94367.31;5073457;28;1093;-51
2023/01/21 04:18:33;;;;;;;;;;;;;;;3.67;95.71;94366.19;5073532;28;1983;-51
2023/01/21 04:20:59;;;;;;;;;;;;;;;3.80;95.71;94371.22;5073667;28;1032;-51
2023/01/21 04:23:25;;;;;;;;;;;;;;;3.70;96.11;94356.16;5055750;28;1044;-51
2023/01/21 04:25:51;;;;;;;;;;;;;;;3.74;95.28;94361.16;5073382;28;1045;-51
2023/01/21 04:28:18;;;;;;;;;;;;;;;3.77;95.49;94363.53;5073441;28;958;-51
2023/01/21 04:30:47;;;;;;;;;;;;;;;3.60;95.05;94370.34;5073322;28;981;-51
2023/01/21 04:33:13;;;;;;;;;;;;;;;3.52;95.14;94363.09;5073284;28;1137;-51
2023/01/21 04:35:39;;;;;;;;;;;;;;;3.63;95.92;94356.88;5073436;28;957;-51
2023/01/21 04:38:05;;;;;;;;;;;;;;;3.72;95.57;94358.69;5073135;28;1913;-50
2023/01/21 04:40:31;;;;;;;;;;;;;;;3.84;95.75;94367.31;5055454;28;1085;-51
2023/01/21 04:42:57;;;;;;;;;;;;;;;3.89;95.07;94388.88;5073269;28;1053;-51
2023/01/21 04:45:23;;;;;;;;;;;;;;;3.80;94.82;94381.78;5073090;28;984;-50
2023/01/21 04:47:49;;;;;;;;;;;;;;;3.91;94.18;94394.88;5073321;28;1005;-51
2023/01/21 04:50:16;;;;;;;;;;;;;;;3.86;94.33;94389.16;5073143;28;1038;-51
2023/01/21 04:52:42;;;;;;;;;;;;;;;3.82;94.67;94393.06;5073192;28;1036;-51
2023/01/21 04:55:08;;;;;;;;;;;;;;;3.93;94.02;94403.50;5071929;28;1288;-51
2023/01/21 04:57:35;;;;;;;;;;;;;;;3.90;93.75;94409.88;5052993;28;1914;-50
2023/01/21 05:00:01;;;;;;;;;;;;;;;3.74;94.25;94404.31;5052984;28;1046;-51
2023/01/21 05:02:27;;;;;;;;;;;;;;;3.55;94.83;94412.22;5053196;28;1335;-51
2023/01/21 05:04:53;;;;;;;;;;;;;;;3.39;96.57;94416.22;5053228;28;1056;-51
2023/01/21 05:07:19;;;;;;;;;;;;;;;3.45;96.84;94409.53;5051721;28;1037;-51
2023/01/21 05:09:45;;;;;;;;;;;;;;;3.61;95.92;94414.31;5052921;28;1315;-50
2023/01/21 05:12:12;;;;;;;;;;;;;;;3.43;95.52;94411.50;5052943;28;1053;-50
2023/01/21 05:14:38;;;;;;;;;;;;;;;3.52;96.50;94415.97;5055727;28;993;-50
2023/01/21 05:17:04;;;;;;;;;;;;;;;3.71;95.52;94423.91;5057030;28;1910;-50
2023/01/21 05:19:30;;;;;;;;;;;;;;;3.78;94.31;94421.56;5056689;28;1045;-50
2023/01/21 05:21:56;;;;;;;;;;;;;;;3.75;93.43;94421.00;5056754;28;1065;-50
2023/01/21 05:24:22;;;;;;;;;;;;;;;3.68;94.31;94411.00;5056662;28;1088;-51
2023/01/21 05:26:48;;;;;;;;;;;;;;;3.75;93.77;94419.19;5056677;28;1037;-50
2023/01/21 05:29:18;;;;;;;;;;;;;;;3.78;94.18;94408.34;5056573;28;1030;-50
2023/01/21 05:31:43;;;;;;;;;;;;;;;3.85;94.22;94396.25;5056730;28;1180;-51
2023/01/21 05:34:10;;;;;;;;;;;;;;;3.88;93.91;94406.53;5056722;28;1047;-51
2023/01/21 05:36:36;;;;;;;;;;;;;;;4.04;93.86;94405.16;5056312;28;1914;-50
2023/01/21 05:39:03;;;;;;;;;;;;;;;3.91;93.43;94398.34;5056527;28;962;-50
2023/01/21 05:41:29;;;;;;;;;;;;;;;3.81;93.20;94407.25;5056376;28;1033;-50
2023/01/21 05:43:55;;;;;;;;;;;;;;;3.93;93.69;94408.78;5056279;28;1118;-50
2023/01/21 05:46:21;;;;;;;;;;;;;;;3.99;93.58;94418.81;5055032;28;1120;-50
2023/01/21 05:48:47;;;;;;;;;;;;;;;3.94;92.56;94417.56;5055105;28;1065;-50
2023/01/21 05:51:13;;;;;;;;;;;;;;;3.96;93.81;94419.06;5056337;28;1152;-50
2023/01/21 05:53:39;;;;;;;;;;;;;;;4.06;93.68;94417.28;5056086;28;1046;-50
2023/01/21 05:56:05;;;;;;;;;;;;;;;4.17;92.96;94416.28;5065168;28;1158;-50
2023/01/21 05:58:31;;;;;;;;;;;;;;;4.25;92.38;94423.50;5076125;28;1991;-51
2023/01/21 06:00:57;;;;;;;;;;;;;;;4.07;93.64;94420.75;5092602;28;1058;-51
2023/01/21 06:03:23;;;;;;;;;;;;;;;4.01;93.30;94438.00;5087586;28;1037;-51
2023/01/21 06:05:50;;;;;;;;;;;;;;;4.15;93.37;94438.56;5075948;28;1049;-51
2023/01/21 06:08:16;;;;;;;;;;;;;;;4.16;92.75;94440.25;5075950;28;980;-51
2023/01/21 06:10:43;;;;;;;;;;;;;;;4.18;93.14;94440.94;5075680;28;1224;-51
2023/01/21 06:13:12;;;;;;;;;;;;;;;4.23;93.36;94449.28;5075839;28;969;-51
2023/01/21 06:15:39;;;;;;;;;;;;;;;4.21;93.75;94464.47;5075702;28;1148;-51
2023/01/21 06:18:05;;;;;;;;;;;;;;;4.22;94.75;94460.88;5075796;28;1906;-51
2023/01/21 06:20:31;;;;;;;;;;;;;;;4.31;93.79;94454.75;5075718;28;981;-51
2023/01/21 06:22:57;;;;;;;;;;;;;;;4.31;93.58;94444.16;5075706;28;958;-51
2023/01/21 06:25:24;;;;;;;;;;;;;;;4.21;93.74;94438.88;5075525;28;1017;-50
2023/01/21 06:27:52;;;;;;;;;;;;;;;4.14;94.39;94415.75;5057820;28;1036;-51
2023/01/21 06:30:18;;;;;;;;;;;;;;;4.03;95.69;94445.81;5075678;28;997;-51
2023/01/21 06:32:44;;;;;;;;;;;;;;;4.08;95.90;94435.66;5075426;28;1045;-50
2023/01/21 06:35:10;;;;;;;;;;;;;;;3.89;96.05;94442.59;5075431;28;1049;-50
2023/01/21 06:37:36;;;;;;;;;;;;;;;4.01;95.59;94443.31;5075177;28;1984;-50
2023/01/21 06:40:03;;;;;;;;;;;;;;;4.02;95.40;94442.34;5075280;28;1056;-49
2023/01/21 06:42:29;;;;;;;;;;;;;;;3.99;95.49;94437.31;5075030;28;973;-49
2023/01/21 06:44:55;;;;;;;;;;;;;;;4.00;95.62;94451.38;5075273;28;1054;-50
2023/01/21 06:47:21;;;;;;;;;;;;;;;4.21;95.40;94433.56;5075198;28;950;-50
2023/01/21 06:49:47;;;;;;;;;;;;;;;4.32;94.05;94437.88;5075229;28;1037;-50
2023/01/21 06:52:13;;;;;;;;;;;;;;;4.43;94.42;94432.41;5057470;28;1877;-50
2023/01/21 06:54:39;;;;;;;;;;;;;;;4.66;92.96;94437.41;5057131;28;1033;-50
2023/01/21 06:57:05;;;;;;;;;;;;;;;4.87;91.31;94439.88;5057221;28;1975;-50
2023/01/21 06:59:31;;;;;;;;;;;;;;;4.88;91.18;94442.38;5037038;28;1221;-50
2023/01/21 07:01:57;;;;;;;;;;;;;;;4.82;91.48;94434.19;5054979;28;1053;-50
2023/01/21 07:04:25;;;;;;;;;;;;;;;4.59;91.57;94425.72;5054858;28;1068;-50
2023/01/21 07:06:51;;;;;;;;;;;;;;;4.57;91.66;94427.66;5054777;28;958;-50
2023/01/21 07:09:17;;;;;;;;;;;;;;;4.62;92.06;94436.84;5036839;28;1209;-51
2023/01/21 07:11:43;;;;;;;;;;;;;;;4.73;91.09;94430.56;5054466;28;1009;-50
2023/01/21 07:14:09;;;;;;;;;;;;;;;4.82;90.48;94419.13;5037173;28;970;-50
2023/01/21 07:16:35;;;;;;;;;;;;;;;4.95;87.66;94423.25;5054522;28;1985;-50
2023/01/21 07:19:01;;;;;;;;;;;;;;;5.12;88.78;94417.19;5054408;28;1873;-50
2023/01/21 07:21:27;;;;;;;;;;;;;;;5.21;88.42;94424.25;5054451;28;1009;-50
2023/01/21 07:23:53;;;;;;;;;;;;;;;5.36;87.45;94418.47;5054423;28;935;-50
2023/01/21 07:26:20;;;;;;;;;;;;;;;5.41;86.76;94413.59;5054215;28;1048;-50
2023/01/21 07:28:46;;;;;;;;;;;;;;;5.49;86.27;94424.28;5054314;28;1074;-50
2023/01/21 07:31:12;;;;;;;;;;;;;;;5.43;87.38;94427.53;5054374;28;1038;-50
2023/01/21 07:33:38;;;;;;;;;;;;;;;5.50;88.25;94438.34;5054235;28;1013;-50
2023/01/21 07:36:05;;;;;;;;;;;;;;;5.35;89.08;94443.31;5053662;28;1096;-50
2023/01/21 07:38:31;;;;;;;;;;;;;;;5.33;88.89;94446.13;5053980;28;1906;-50
2023/01/21 07:40:57;;;;;;;;;;;;;;;5.46;88.38;94435.16;5054032;28;1038;-50
2023/01/21 07:43:23;;;;;;;;;;;;;;;5.60;87.61;94436.50;5052935;28;1033;-50
2023/01/21 07:45:49;;;;;;;;;;;;;;;5.71;86.92;94443.41;5054150;28;1037;-51
2023/01/21 07:48:15;;;;;;;;;;;;;;;5.72;87.20;94453.03;5053937;28;1090;-50
2023/01/21 07:50:41;;;;;;;;;;;;;;;5.65;87.92;94458.09;5053884;28;1018;-51
2023/01/21 07:53:09;;;;;;;;;;;;;;;5.65;88.33;94455.44;5053800;28;1151;-50
2023/01/21 07:55:35;;;;;;;;;;;;;;;5.52;89.99;94450.50;5058413;28;1206;-50
2023/01/21 07:58:01;;;;;;;;;;;;;;;5.58;90.35;94460.50;5073912;28;1906;-50
2023/01/21 08:00:28;;;;;;;;;;;;;;;5.66;91.20;94457.13;5055842;28;1053;-50
2023/01/21 08:02:55;;;;;;;;;;;;;;;5.72;90.76;94461.00;5073917;28;1135;-50
2023/01/21 08:05:24;;;;;;;;;;;;;;;5.75;90.70;94458.03;5073515;28;1216;-50
2023/01/21 08:07:50;;;;;;;;;;;;;;;5.78;90.39;94463.06;5072442;28;1068;-50
2023/01/21 08:10:17;;;;;;;;;;;;;;;5.79;90.68;94468.22;5073395;28;1085;-50
2023/01/21 08:12:44;;;;;;;;;;;;;;;5.77;90.56;94474.66;5073931;28;970;-50
2023/01/21 08:15:10;;;;;;;;;;;;;;;5.80;90.60;94480.47;5073704;28;962;-49
2023/01/21 08:17:37;;;;;;;;;;;;;;;5.75;90.31;94480.09;5073333;28;1906;-50
2023/01/21 08:20:04;;;;;;;;;;;;;;;5.54;91.96;94484.81;5073470;28;1048;-50
2023/01/21 08:22:30;;;;;;;;;;;;;;;5.56;91.92;94481.03;5073460;28;1054;-50
2023/01/21 08:24:56;;;;;;;;;;;;;;;5.58;91.74;94489.69;5073345;28;1009;-50
2023/01/21 08:27:22;;;;;;;;;;;;;;;5.66;91.45;94479.16;5073500;28;946;-51
2023/01/21 08:29:48;;;;;;;;;;;;;;;5.78;91.64;94479.78;5073501;28;1018;-51
2023/01/21 08:32:14;;;;;;;;;;;;;;;5.86;90.94;94479.91;5073437;28;993;-50
2023/01/21 08:34:40;;;;;;;;;;;;;;;5.96;91.02;94481.72;5073307;28;1053;-50
2023/01/21 08:37:06;;;;;;;;;;;;;;;5.82;91.13;94486.50;5073235;28;1910;-50
2023/01/21 08:39:32;;;;;;;;;;;;;;;5.86;91.66;94481.72;5073098;28;1048;-50
2023/01/21 08:41:59;;;;;;;;;;;;;;;5.78;92.95;94494.88;5055670;28;1024;-51
2023/01/21 08:44:25;;;;;;;;;;;;;;;5.75;92.80;94495.16;5073128;28;1092;-51
2023/01/21 08:46:51;;;;;;;;;;;;;;;5.78;92.25;94495.72;5073349;28;993;-50
2023/01/21 08:49:17;;;;;;;;;;;;;;;5.94;91.69;94486.25;5075725;28;1029;-50
2023/01/21 08:51:43;;;;;;;;;;;;;;;5.96;91.12;94487.84;5059411;28;1105;-50
2023/01/21 08:54:09;;;;;;;;;;;;;;;6.05;90.71;94496.69;5077115;28;1092;-50
2023/01/21 08:56:35;;;;;;;;;;;;;;;6.04;91.07;94493.22;5077194;28;1992;-50
2023/01/21 08:59:01;;;;;;;;;;;;;;;5.91;90.16;94487.41;5077103;28;1117;-50
2023/01/21 09:01:28;;;;;;;;;;;;;;;5.93;89.60;94489.91;5077199;28;1009;-51
2023/01/21 09:03:54;;;;;;;;;;;;;;;6.11;89.50;94489.97;5077004;28;1061;-51
2023/01/21 09:06:21;;;;;;;;;;;;;;;6.05;90.15;94492.25;5076980;28;952;-50
2023/01/21 09:08:47;;;;;;;;;;;;;;;6.15;90.30;94501.97;5076728;28;1215;-51
2023/01/21 09:11:15;;;;;;;;;;;;;;;6.29;90.42;94495.31;5076960;28;1117;-51
2023/01/21 09:13:43;;;;;;;;;;;;;;;6.37;90.87;94498.03;5077003;28;1044;-50
2023/01/21 09:16:10;;;;;;;;;;;;;;;6.39;90.56;94499.56;5076998;28;1044;-50
2023/01/21 09:18:36;;;;;;;;;;;;;;;6.39;89.90;94491.59;5076734;28;1993;-50
2023/01/21 09:21:04;;;;;;;;;;;;;;;6.34;90.39;94503.66;5076733;28;1104;-50
2023/01/21 09:23:33;;;;;;;;;;;;;;;6.25;90.04;94500.06;5076552;28;1096;-51
2023/01/21 09:26:02;;;;;;;;;;;;;;;6.10;91.57;94489.13;5076584;28;1215;-50
2023/01/21 09:28:29;;;;;;;;;;;;;;;6.20;91.89;94500.53;5076683;28;973;-51
2023/01/21 09:30:58;;;;;;;;;;;;;;;6.32;91.58;94494.97;5076627;28;1041;-50
2023/01/21 09:33:25;;;;;;;;;;;;;;;6.24;91.60;94488.63;5076350;28;1109;-51
2023/01/21 09:35:53;;;;;;;;;;;;;;;6.11;93.11;94497.94;5058509;28;1010;-50
2023/01/21 09:38:19;;;;;;;;;;;;;;;6.19;93.06;94487.41;5075932;28;1981;-50
2023/01/21 09:40:45;;;;;;;;;;;;;;;6.23;92.54;94496.75;5076608;28;1037;-51
2023/01/21 09:43:15;;;;;;;;;;;;;;;6.25;92.93;94490.28;5076413;28;1044;-50
2023/01/21 09:45:43;;;;;;;;;;;;;;;6.32;92.17;94482.56;5075219;28;1045;-50
2023/01/21 09:48:14;;;;;;;;;;;;;;;6.11;93.16;94482.84;5075562;28;1021;-51
2023/01/21 09:50:45;;;;;;;;;;;;;;;6.18;92.88;94483.06;5075973;28;1043;-50
2023/01/21 09:53:24;;;;;;;;;;;;;;;6.12;93.31;94481.03;5075962;28;1012;-50
2023/01/21 09:55:51;;;;;;;;;;;;;;;6.15;92.81;94472.78;5068680;28;1158;-51
2023/01/21 09:58:17;;;;;;;;;;;;;;;6.24;92.89;94469.19;5055663;28;1999;-51
2023/01/21 10:00:50;;;;;;;;;;;;;;;6.34;91.35;94471.81;5055440;28;1020;-51
2023/01/21 10:03:16;;;;;;;;;;;;;;;6.25;91.39;94457.59;5055884;28;1026;-50
2023/01/21 10:05:57;;;;;;;;;;;;;;;6.35;91.47;94455.69;5055834;28;1042;-51
2023/01/21 10:08:23;;;;;;;;;;;;;;;6.43;91.03;94461.09;5055904;28;973;-51
2023/01/21 10:11:06;;;;;;;;;;;;;;;6.33;91.75;94464.81;5055727;28;1109;-50
2023/01/21 10:13:38;;;;;;;;;;;;;;;6.30;91.30;94455.34;5055635;28;1141;-51
2023/01/21 10:16:25;;;;;;;;;;;;;;;6.35;90.57;94466.31;5055716;28;1108;-51
2023/01/21 10:18:53;;;;;;;;;;;;;;;6.41;90.39;94467.53;5055611;28;1971;-51
2023/01/21 10:21:42;;;;;;;;;;;;;;;6.42;90.73;94459.41;5055672;28;1048;-51
2023/01/21 10:24:13;;;;;;;;;;;;;;;6.21;92.79;94456.25;5055572;28;1080;-50
2023/01/21 10:26:41;;;;;;;;;;;;;;;6.21;92.58;94440.31;5055623;28;1033;-51
2023/01/21 10:29:13;;;;;;;;;;;;;;;6.33;92.06;94433.78;5055660;28;1013;-51
2023/01/21 10:31:41;;;;;;;;;;;;;;;6.41;91.92;94438.31;5055347;28;1037;-51
2023/01/21 10:34:13;;;;;;;;;;;;;;;6.48;91.99;94446.53;5055394;28;930;-50
2023/01/21 10:36:52;;;;;;;;;;;;;;;6.43;92.00;94439.84;5055136;28;1988;-51
2023/01/21 10:39:37;;;;;;;;;;;;;;;6.45;91.64;94437.06;5055288;28;1033;-51
2023/01/21 10:42:22;;;;;;;;;;;;;;;6.47;91.78;94436.88;5055239;28;1050;-51
2023/01/21 10:44:55;;;;;;;;;;;;;;;6.55;91.02;94426.34;5055110;28;1049;-50
2023/01/21 10:47:30;;;;;;;;;;;;;;;6.57;91.41;94424.34;5055377;28;985;-51
2023/01/21 10:49:56;;;;;;;;;;;;;;;6.62;90.50;94424.69;5055313;28;973;-51
2023/01/21 10:52:28;;;;;;;;;;;;;;;6.68;90.76;94437.38;5054980;28;1088;-50
2023/01/21 10:55:01;;;;;;;;;;;;;;;6.65;91.68;94443.00;5055107;28;1032;-51
2023/01/21 10:57:39;;;;;;;;;;;;;;;6.75;91.22;94441.06;5054712;28;1915;-51
2023/01/21 11:00:17;;;;;;;;;;;;;;;6.71;92.64;94441.56;5054860;28;1108;-51
2023/01/21 11:02:45;;;;;;;;;;;;;;;6.55;93.47;94419.19;5054949;28;1014;-51
2023/01/21 11:05:12;;;;;;;;;;;;;;;6.52;94.78;94421.31;5054778;28;938;-51
2023/01/21 11:07:41;;;;;;;;;;;;;;;6.56;93.55;94418.19;5054710;28;997;-50
2023/01/21 11:10:07;;;;;;;;;;;;;;;6.53;94.38;94415.03;5054472;28;1423;-51
2023/01/21 11:12:33;;;;;;;;;;;;;;;6.65;95.01;94397.84;5053952;28;1056;-50
2023/01/21 11:15:12;;;;;;;;;;;;;;;6.69;94.65;94385.91;5054585;28;1038;-50
2023/01/21 11:17:39;;;;;;;;;;;;;;;6.88;92.36;94392.00;5054401;28;1914;-51
2023/01/21 11:20:14;;;;;;;;;;;;;;;7.10;91.69;94399.44;5054558;28;970;-51
2023/01/21 11:22:42;;;;;;;;;;;;;;;7.22;91.07;94400.00;5054309;28;978;-51
2023/01/21 11:25:22;;;;;;;;;;;;;;;7.20;91.83;94415.28;5054399;28;1129;-51
2023/01/21 11:27:48;;;;;;;;;;;;;;;7.22;91.82;94403.47;5054354;28;1510;-51
2023/01/21 11:30:28;;;;;;;;;;;;;;;7.32;91.42;94405.19;5054299;28;1105;-51
2023/01/21 11:33:09;;;;;;;;;;;;;;;7.35;91.96;94407.53;5054231;28;1048;-51
2023/01/21 11:35:35;;;;;;;;;;;;;;;7.24;93.15;94400.66;5054314;28;1081;-51
2023/01/21 11:38:02;;;;;;;;;;;;;;;7.31;92.85;94398.22;5054048;28;1910;-50
2023/01/21 11:40:28;;;;;;;;;;;;;;;7.39;92.45;94401.72;5054204;28;966;-51
2023/01/21 11:42:55;;;;;;;;;;;;;;;7.40;92.54;94399.94;5054164;28;1057;-51
2023/01/21 11:45:27;;;;;;;;;;;;;;;7.38;92.13;94401.88;5054012;28;969;-51
2023/01/21 11:47:53;;;;;;;;;;;;;;;7.28;92.88;94390.56;5054173;28;1008;-51
2023/01/21 11:50:36;;;;;;;;;;;;;;;7.29;92.24;94381.59;5054072;28;1033;-51
2023/01/21 11:53:05;;;;;;;;;;;;;;;7.32;92.55;94398.06;5053961;28;1066;-51
2023/01/21 11:55:33;;;;;;;;;;;;;;;7.27;92.75;94397.72;5058062;28;1159;-51
2023/01/21 11:57:59;;;;;;;;;;;;;;;7.24;93.11;94390.84;5073645;28;1918;-51
2023/01/21 12:00:28;;;;;;;;;;;;;;;7.32;92.43;94403.38;5073891;28;1041;-50
2023/01/21 12:03:00;;;;;;;;;;;;;;;7.46;92.36;94409.09;5073891;28;973;-51
2023/01/21 12:05:33;;;;;;;;;;;;;;;7.45;91.89;94394.94;5073730;28;1041;-51
2023/01/21 12:08:02;;;;;;;;;;;;;;;7.30;93.56;94385.91;5073598;28;2037;-51
2023/01/21 12:10:30;;;;;;;;;;;;;;;7.31;94.45;94384.94;5073435;28;1259;-51
2023/01/21 12:13:08;;;;;;;;;;;;;;;7.48;93.25;94399.94;5073536;28;1112;-50
2023/01/21 12:15:53;;;;;;;;;;;;;;;7.52;93.68;94409.28;5073662;28;1073;-51
2023/01/21 12:18:28;;;;;;;;;;;;;;;7.62;92.00;94399.31;5073303;28;1902;-50
2023/01/21 12:21:02;;;;;;;;;;;;;;;7.59;92.41;94407.63;5073436;28;970;-51
2023/01/21 12:23:48;;;;;;;;;;;;;;;7.54;92.85;94409.13;5073499;28;1040;-51
2023/01/21 12:26:20;;;;;;;;;;;;;;;7.58;93.09;94394.50;5073351;28;1092;-51
2023/01/21 12:29:05;;;;;;;;;;;;;;;7.66;94.27;94407.00;5073488;28;989;-50
2023/01/21 12:31:36;;;;;;;;;;;;;;;7.70;94.54;94405.66;5073128;28;1100;-51
2023/01/21 12:34:08;;;;;;;;;;;;;;;7.72;93.94;94401.00;5073629;28;1088;-51
2023/01/21 12:36:44;;;;;;;;;;;;;;;7.76;94.88;94405.88;5073173;28;1033;-51
2023/01/21 12:39:32;;;;;;;;;;;;;;;7.80;94.80;94412.53;5073486;28;1040;-51
2023/01/21 12:42:17;;;;;;;;;;;;;;;7.82;94.01;94410.53;5073264;28;1044;-50
2023/01/21 12:45:09;;;;;;;;;;;;;;;7.87;93.78;94410.03;5073317;28;1079;-50
2023/01/21 12:47:51;;;;;;;;;;;;;;;7.89;94.15;94418.72;5069578;28;1565;-51
2023/01/21 12:50:20;;;;;;;;;;;;;;;7.86;95.46;94426.19;5073154;28;1841;-51
2023/01/21 12:52:46;;;;;;;;;;;;;;;7.96;94.66;94418.88;5073173;28;1113;-51
2023/01/21 12:55:18;;;;;;;;;;;;;;;7.95;94.71;94431.38;5071570;28;1213;-51
2023/01/21 12:58:01;;;;;;;;;;;;;;;7.82;96.25;94437.16;5053026;28;1910;-51
2023/01/21 13:00:32;;;;;;;;;;;;;;;7.69;96.51;94433.28;5053110;28;1079;-51
2023/01/21 13:03:16;;;;;;;;;;;;;;;7.65;97.58;94431.94;5053039;28;1048;-51
2023/01/21 13:05:46;;;;;;;;;;;;;;;7.67;98.23;94438.75;5053105;28;958;-51
2023/01/21 13:08:21;;;;;;;;;;;;;;;7.79;96.99;94442.78;5053095;28;1028;-51
2023/01/21 13:10:56;;;;;;;;;;;;;;;7.78;97.71;94446.44;5052892;28;1109;-51
2023/01/21 13:13:22;;;;;;;;;;;;;;;7.88;96.75;94446.31;5052866;28;1033;-50
2023/01/21 13:15:57;;;;;;;;;;;;;;;7.93;95.79;94448.47;5052949;28;1093;-51
2023/01/21 13:18:31;;;;;;;;;;;;;;;7.97;96.34;94449.84;5052979;28;1971;-51
2023/01/21 13:21:08;;;;;;;;;;;;;;;7.99;95.77;94448.69;5052900;28;1125;-51
2023/01/21 13:23:43;;;;;;;;;;;;;;;8.00;96.21;94445.00;5052877;28;1042;-51
2023/01/21 13:26:16;;;;;;;;;;;;;;;8.04;96.54;94445.50;5052816;28;1251;-51